»·PEaware :: N522PM KONT-KCMA

N522PM :: KONT-KCMA

FLIGHT INFORMATION

Flight Status: Arrived
Operator: Privately registered:
United States
More flights under this callsign
Pilot: Bruce B. (6887)
Aircraft: BEECH AIRCRAFT BONANZA
(BE36)
More flights by this aircraft type
Origin: KONT Ontario Intl
United States
Destination: KCMA Camarillo
United States
More flights between these airports :: More routes between these airports
Route: DIRECT
File this flight plan on PilotEdge
Remarks:
Altitude:
(Current/Filed)
6,500ft
Speed:
(Current/Filed)
160kts
Departed: 26-Oct-19 03:17 PM
Arrived: 26-Oct-19 03:49 PM
Distance/Time
Traveled:
75nm/0:32
Distance/Time
To Go:
Arrived

Flight Plot

Page will automatically refresh every two minutes.

Flight plan parsing failed; only flown route is shown


Map Options




Map Legend


Flown Route
Filed Route
Departure Airport
Arrival Airport
Navaid (VOR, NDB)
Fix

Horizontal Profiles

Position Reports

Time Latitude Longitude Heading Altitude Ground
Speed
26-Oct-19 14:59 34.052615 -117.603672 271 948ft 0kts
26-Oct-19 15:00 34.052615 -117.603673 271 948ft 0kts
26-Oct-19 15:01 34.052615 -117.603675 271 948ft 0kts
26-Oct-19 15:02 34.052615 -117.603677 271 948ft 0kts
26-Oct-19 15:03 34.052607 -117.603506 283 948ft 2kts
26-Oct-19 15:04 34.052502 -117.603334 327 948ft 0kts
26-Oct-19 15:05 34.052503 -117.603334 327 948ft 0kts
26-Oct-19 15:06 34.052504 -117.603335 327 948ft 0kts
26-Oct-19 15:07 34.052505 -117.603335 327 948ft 0kts
26-Oct-19 15:08 34.052505 -117.603336 327 948ft 0kts
26-Oct-19 15:09 34.052506 -117.603337 327 948ft 0kts
26-Oct-19 15:10 34.052507 -117.603337 327 948ft 0kts
26-Oct-19 15:12 34.052508 -117.603338 327 948ft 0kts
26-Oct-19 15:13 34.052509 -117.603338 327 948ft 0kts
26-Oct-19 15:14 34.052509 -117.603339 327 948ft 0kts
26-Oct-19 15:15 34.054389 -117.602368 44 948ft 2kts
26-Oct-19 15:16 34.054495 -117.602222 50 948ft 7kts
26-Oct-19 15:17 34.055157 -117.611086 265 1071ft 85kts
26-Oct-19 15:18 34.046772 -117.640454 246 2345ft 90kts
26-Oct-19 15:19 34.036000 -117.674859 246 3115ft 121kts
26-Oct-19 15:20 34.036172 -117.713731 281 4217ft 123kts
26-Oct-19 15:21 34.041538 -117.748818 278 5074ft 126kts
26-Oct-19 15:22 34.047079 -117.790757 279 6065ft 123kts
26-Oct-19 15:23 34.052795 -117.834159 279 6536ft 150kts
26-Oct-19 15:24 34.059831 -117.886437 279 6517ft 160kts
26-Oct-19 15:25 34.067110 -117.940133 279 6511ft 167kts
26-Oct-19 15:26 34.074574 -117.994511 279 6506ft 161kts
26-Oct-19 15:27 34.081649 -118.048299 279 6507ft 168kts
26-Oct-19 15:28 34.088824 -118.103260 279 6498ft 163kts
26-Oct-19 15:29 34.095633 -118.155741 279 6493ft 158kts
26-Oct-19 15:30 34.102481 -118.208628 279 6497ft 164kts
26-Oct-19 15:31 34.109461 -118.262727 279 6492ft 162kts
26-Oct-19 15:31 34.115242 -118.307675 279 6503ft 167kts
26-Oct-19 15:33 34.124014 -118.372140 281 6501ft 166kts
26-Oct-19 15:34 34.133325 -118.426793 282 6503ft 170kts
26-Oct-19 15:34 34.141154 -118.472494 282 6498ft 163kts
26-Oct-19 15:35 34.150122 -118.525749 281 6503ft 163kts
26-Oct-19 15:37 34.160825 -118.589141 282 6500ft 169kts
26-Oct-19 15:37 34.168583 -118.634938 282 6499ft 163kts
26-Oct-19 15:38 34.176771 -118.683613 282 6257ft 166kts
26-Oct-19 15:39 34.185934 -118.738461 282 5567ft 167kts
26-Oct-19 15:40 34.195027 -118.791501 282 4654ft 145kts
26-Oct-19 15:41 34.203366 -118.838048 282 3657ft 145kts
26-Oct-19 15:42 34.210443 -118.883681 274 3100ft 132kts
26-Oct-19 15:43 34.211796 -118.927100 269 2951ft 125kts
26-Oct-19 15:44 34.212158 -118.969743 270 2641ft 128kts
26-Oct-19 15:45 34.212910 -119.007506 270 1794ft 111kts
26-Oct-19 15:46 34.213484 -119.038554 264 990ft 88kts
26-Oct-19 15:47 34.213490 -119.067207 266 387ft 77kts
26-Oct-19 15:48 34.213727 -119.088601 267 79ft 31kts
26-Oct-19 15:49 34.211311 -119.089614 134 79ft 14kts
26-Oct-19 15:50 34.210656 -119.090158 354 79ft 0kts

Navigation Log

Ident Type
Flight plan parsing failed, navigation log unavailable